createdAt,value
2022-10-31T00:00:50.485Z,47.97
2022-10-31T00:03:38.978Z,44.53
2022-10-31T00:06:07.398Z,44.13
2022-10-31T00:08:36.318Z,44.63
2022-10-31T00:11:10.687Z,40.70
2022-10-31T00:13:39.618Z,39.30
2022-10-31T00:16:15.215Z,41.95
2022-10-31T00:18:44.071Z,38.72
2022-10-31T00:21:12.377Z,42.47
2022-10-31T00:23:41.141Z,44.10
2022-10-31T00:26:09.471Z,40.55
2022-10-31T00:28:38.380Z,40.50
2022-10-31T00:31:09.553Z,50.13
2022-10-31T00:33:40.378Z,43.83
2022-10-31T00:36:12.142Z,41.10
2022-10-31T00:38:43.681Z,37.47
2022-10-31T00:41:13.491Z,46.45
2022-10-31T00:43:44.311Z,49.67
2022-10-31T00:46:13.839Z,45.35
2022-10-31T00:48:43.526Z,39.03
2022-10-31T00:51:11.865Z,39.15
2022-10-31T00:53:42.007Z,44.15
2022-10-31T00:56:10.814Z,45.35
2022-10-31T00:58:39.633Z,39.72
2022-10-31T01:01:09.225Z,41.00
2022-10-31T01:03:39.953Z,41.22
2022-10-31T01:06:14.488Z,45.55
2022-10-31T01:08:44.355Z,38.75
2022-10-31T01:11:21.732Z,50.58
2022-10-31T01:13:55.055Z,45.80
2022-10-31T01:16:27.017Z,45.55
2022-10-31T01:18:55.586Z,42.28
2022-10-31T01:21:27.104Z,41.80
2022-10-31T01:23:58.423Z,35.88
2022-10-31T01:26:29.438Z,46.20
2022-10-31T01:29:00.711Z,40.50
2022-10-31T01:31:33.069Z,38.60
2022-10-31T01:34:01.836Z,39.08
2022-10-31T01:36:32.750Z,37.88
2022-10-31T01:39:05.400Z,36.58
2022-10-31T01:41:37.350Z,37.63
2022-10-31T01:44:31.379Z,36.10
2022-10-31T01:47:00.729Z,38.35
2022-10-31T01:49:41.438Z,39.42
2022-10-31T01:52:22.938Z,37.58
2022-10-31T01:55:17.138Z,42.75
2022-10-31T02:00:35.979Z,43.33
2022-10-31T02:03:04.782Z,36.97
2022-10-31T02:05:34.074Z,38.95
2022-10-31T02:08:15.763Z,39.45
2022-10-31T02:10:45.482Z,36.83
2022-10-31T02:13:14.575Z,37.45
2022-10-31T02:15:52.571Z,39.03
2022-10-31T02:18:21.885Z,38.40
2022-10-31T02:21:09.020Z,43.85
2022-10-31T02:23:50.621Z,42.22
2022-10-31T02:26:27.845Z,35.85
2022-10-31T02:29:30.215Z,34.72
2022-10-31T02:32:09.150Z,35.20
2022-10-31T02:34:43.672Z,34.97
2022-10-31T02:37:26.988Z,36.97
2022-10-31T02:40:05.947Z,34.30
2022-10-31T02:45:47.223Z,39.05
2022-10-31T02:48:28.179Z,38.17
2022-10-31T02:51:03.477Z,38.78
2022-10-31T02:53:36.799Z,39.50
2022-10-31T02:56:14.739Z,37.38
2022-10-31T02:58:58.760Z,37.70
2022-10-31T03:01:33.222Z,35.90
2022-10-31T03:04:18.307Z,41.42
2022-10-31T03:06:55.282Z,39.40
2022-10-31T03:09:37.629Z,44.80
2022-10-31T03:14:49.591Z,46.47
2022-10-31T03:17:34.398Z,42.08
2022-10-31T03:20:07.620Z,43.40
2022-10-31T03:22:39.042Z,46.90
2022-10-31T03:25:10.097Z,49.75
2022-10-31T03:27:42.005Z,47.15
2022-10-31T03:30:11.371Z,45.85
2022-10-31T03:32:59.023Z,48.05
2022-10-31T03:35:33.624Z,44.38
2022-10-31T03:38:08.072Z,49.40
2022-10-31T03:40:40.735Z,46.05
2022-10-31T03:43:20.394Z,50.33
2022-10-31T03:45:50.857Z,46.17
2022-10-31T03:48:22.133Z,46.60
2022-10-31T03:51:02.499Z,42.45
2022-10-31T03:53:39.804Z,44.63
2022-10-31T03:56:19.264Z,44.50
2022-10-31T03:59:01.702Z,40.95
2022-10-31T04:01:35.673Z,48.22
2022-10-31T04:04:04.972Z,52.33
2022-10-31T04:06:35.909Z,40.97
2022-10-31T04:09:07.805Z,41.05
2022-10-31T04:11:47.351Z,48.70
2022-10-31T04:14:55.439Z,39.50
2022-10-31T04:20:18.466Z,49.67
2022-10-31T04:22:47.200Z,41.78
2022-10-31T04:25:15.705Z,42.47
2022-10-31T04:27:44.897Z,44.70
2022-10-31T04:30:13.505Z,40.38
2022-10-31T04:32:44.577Z,41.25
2022-10-31T04:35:13.820Z,46.22
2022-10-31T04:37:43.200Z,39.53
2022-10-31T04:40:12.031Z,41.70
2022-10-31T04:42:41.050Z,40.65
2022-10-31T04:45:10.152Z,40.03
2022-10-31T04:47:39.315Z,40.40
2022-10-31T04:50:08.363Z,41.78
2022-10-31T04:52:41.121Z,44.17
2022-10-31T04:55:12.140Z,42.67
2022-10-31T04:57:51.811Z,44.05
2022-10-31T05:00:23.064Z,40.63
2022-10-31T05:02:55.011Z,46.17
2022-10-31T05:05:28.380Z,40.92
2022-10-31T05:07:57.754Z,47.33
2022-10-31T05:10:37.862Z,48.20
2022-10-31T05:13:06.986Z,48.58
2022-10-31T05:15:54.103Z,46.58
2022-10-31T05:18:57.489Z,43.17
2022-10-31T05:21:46.230Z,54.22
2022-10-31T05:24:15.977Z,41.90
2022-10-31T05:26:51.110Z,44.88
2022-10-31T05:29:19.962Z,46.55
2022-10-31T05:31:48.380Z,47.03
2022-10-31T05:34:42.902Z,44.58
2022-10-31T05:37:37.019Z,45.55
2022-10-31T05:40:08.733Z,45.08
2022-10-31T05:42:39.951Z,42.80
2022-10-31T05:45:11.545Z,45.38
2022-10-31T05:48:02.754Z,51.00
2022-10-31T05:50:51.052Z,50.38
2022-10-31T05:53:22.021Z,38.65
2022-10-31T05:55:50.793Z,41.97
2022-10-31T05:58:21.669Z,36.45
2022-10-31T06:01:02.858Z,38.80
2022-10-31T06:03:32.418Z,40.55
2022-10-31T06:06:04.267Z,40.92
2022-10-31T06:08:38.194Z,40.00
2022-10-31T06:11:10.230Z,44.55
2022-10-31T06:14:07.811Z,47.85
2022-10-31T06:16:45.346Z,48.92
2022-10-31T06:19:36.656Z,42.60
2022-10-31T06:22:05.689Z,48.22
2022-10-31T06:24:38.474Z,47.90
2022-10-31T06:27:20.239Z,49.13
2022-10-31T06:29:49.399Z,41.03
2022-10-31T06:32:30.575Z,54.13
2022-10-31T06:35:00.155Z,42.08
2022-10-31T06:37:28.881Z,53.17
2022-10-31T06:40:04.315Z,48.20
2022-10-31T06:42:41.091Z,41.15
2022-10-31T06:45:11.403Z,42.47
2022-10-31T06:48:17.930Z,44.45
2022-10-31T06:51:10.659Z,46.38
2022-10-31T06:53:42.756Z,44.92
2022-10-31T06:56:15.738Z,46.75
2022-10-31T06:58:49.989Z,41.17
2022-10-31T07:12:47.211Z,44.47
2022-10-31T07:15:19.057Z,40.60
2022-10-31T07:17:47.792Z,43.90
2022-10-31T07:20:18.892Z,42.28
2022-10-31T07:23:49.332Z,50.97
2022-10-31T07:28:19.356Z,46.85
2022-10-31T07:36:33.272Z,47.47
2022-10-31T07:46:31.952Z,46.05
2022-10-31T07:54:30.359Z,52.38
2022-10-31T08:02:19.845Z,40.60
2022-10-31T08:04:52.527Z,44.08
2022-10-31T08:07:39.655Z,43.15
2022-10-31T08:10:24.261Z,41.55
2022-10-31T08:13:14.361Z,41.67
2022-10-31T08:16:19.513Z,42.03
2022-10-31T08:18:56.786Z,44.30
2022-10-31T08:21:29.176Z,43.67
2022-10-31T08:23:57.742Z,44.35
2022-10-31T08:26:27.630Z,54.55
2022-10-31T08:28:57.968Z,43.92
2022-10-31T08:31:35.787Z,46.03
2022-10-31T08:34:25.983Z,45.30
2022-10-31T08:37:13.559Z,48.20
2022-10-31T08:39:47.639Z,44.97
2022-10-31T08:42:16.708Z,52.53
2022-10-31T08:44:45.254Z,47.30
2022-10-31T08:47:18.071Z,49.28
2022-10-31T08:49:46.592Z,44.40
2022-10-31T08:53:03.434Z,45.20
2022-10-31T08:55:31.087Z,46.75
2022-10-31T08:58:11.446Z,46.10
2022-10-31T09:00:46.941Z,47.45
2022-10-31T09:03:22.010Z,46.13
2022-10-31T09:05:51.968Z,53.42
2022-10-31T09:08:20.516Z,49.88
2022-10-31T09:10:50.824Z,49.05
2022-10-31T09:13:29.005Z,43.95
2022-10-31T09:16:15.818Z,43.03
2022-10-31T09:18:45.618Z,45.05
2022-10-31T09:21:18.285Z,43.78
2022-10-31T09:23:48.815Z,43.20
2022-10-31T09:26:17.522Z,42.58
2022-10-31T09:28:56.330Z,43.67
2022-10-31T09:31:26.002Z,43.00
2022-10-31T09:34:04.980Z,55.25
2022-10-31T09:36:40.290Z,44.35
2022-10-31T09:39:13.556Z,44.95
2022-10-31T09:42:05.799Z,44.15
2022-10-31T09:44:51.299Z,43.00
2022-10-31T09:47:44.972Z,44.55
2022-10-31T09:51:14.983Z,46.15
2022-10-31T09:54:19.671Z,42.78
2022-10-31T09:57:17.289Z,43.75
2022-10-31T09:59:50.743Z,45.83
2022-10-31T10:02:38.893Z,46.63
2022-10-31T10:05:12.877Z,41.53
2022-10-31T10:08:02.566Z,42.72
2022-10-31T10:11:13.756Z,40.00
2022-10-31T10:14:17.041Z,40.67
2022-10-31T10:16:57.524Z,43.38
2022-10-31T10:20:02.581Z,40.05
2022-10-31T10:22:49.368Z,45.05
2022-10-31T10:25:32.941Z,43.28
2022-10-31T10:28:39.221Z,43.97
2022-10-31T10:31:21.418Z,45.25
2022-10-31T10:34:19.218Z,42.50
2022-10-31T10:36:57.957Z,42.50
2022-10-31T10:39:35.599Z,46.17
2022-10-31T10:42:32.442Z,46.15
2022-10-31T10:45:26.406Z,44.03
2022-10-31T10:48:09.426Z,42.05
2022-10-31T10:50:46.549Z,45.75
2022-10-31T10:53:50.151Z,45.15
2022-10-31T10:56:35.658Z,50.22
2022-10-31T10:59:04.663Z,48.00
2022-10-31T11:01:33.490Z,51.13
2022-10-31T11:04:03.878Z,46.67
2022-10-31T11:06:34.397Z,51.55
2022-10-31T11:09:11.148Z,56.72
2022-10-31T11:11:42.263Z,59.25
2022-10-31T11:14:16.612Z,58.05
2022-10-31T11:16:49.405Z,52.50
2022-10-31T11:19:21.313Z,47.22
2022-10-31T11:21:53.769Z,45.83
2022-10-31T11:24:26.438Z,42.65
2022-10-31T11:27:14.373Z,43.55
2022-10-31T11:29:44.068Z,41.78
2022-10-31T11:32:27.667Z,43.13
2022-10-31T11:34:59.560Z,44.67
2022-10-31T11:37:31.262Z,46.65
2022-10-31T11:40:07.938Z,44.42
2022-10-31T11:42:42.605Z,47.00
2022-10-31T11:45:20.339Z,47.33
2022-10-31T11:47:54.035Z,46.83
2022-10-31T11:50:49.414Z,45.97
2022-10-31T11:53:51.720Z,51.85
2022-10-31T11:56:20.645Z,45.33
2022-10-31T11:59:01.331Z,48.05
2022-10-31T12:01:32.515Z,48.58
2022-10-31T12:04:07.531Z,51.70
2022-10-31T12:06:41.268Z,50.17
2022-10-31T12:09:29.450Z,51.83
2022-10-31T12:12:12.983Z,48.70
2022-10-31T12:14:56.978Z,44.60
2022-10-31T12:17:36.175Z,43.95
2022-10-31T12:20:08.102Z,42.10
2022-10-31T12:22:54.955Z,40.33
2022-10-31T12:25:36.044Z,41.35
2022-10-31T12:28:16.762Z,46.40
2022-10-31T12:31:27.282Z,50.38
2022-10-31T12:34:22.601Z,48.72
2022-10-31T12:37:27.228Z,49.72
2022-10-31T12:40:22.765Z,48.97
2022-10-31T12:42:51.334Z,42.45
2022-10-31T12:45:22.745Z,41.03
2022-10-31T12:50:58.438Z,43.28
2022-10-31T12:53:52.050Z,42.15
2022-10-31T12:56:23.897Z,48.42
2022-10-31T12:59:08.650Z,47.33
2022-10-31T13:01:42.896Z,45.63
2022-10-31T13:04:22.620Z,45.45
2022-10-31T13:07:05.006Z,49.22
2022-10-31T13:12:11.728Z,45.75
2022-10-31T13:14:57.979Z,48.08
2022-10-31T13:17:35.664Z,47.47
2022-10-31T13:20:17.899Z,46.03
2022-10-31T13:22:50.681Z,47.63
2022-10-31T13:25:26.472Z,48.72
2022-10-31T13:28:06.307Z,52.95
2022-10-31T13:30:41.029Z,43.88
2022-10-31T13:33:19.833Z,46.95
2022-10-31T13:36:29.063Z,44.72
2022-10-31T13:39:11.713Z,45.58
2022-10-31T13:41:42.877Z,48.70
2022-10-31T13:44:26.607Z,51.83
2022-10-31T13:46:57.422Z,45.58
2022-10-31T13:49:32.127Z,47.17
2022-10-31T13:52:13.442Z,51.25
2022-10-31T13:54:56.781Z,47.08
2022-10-31T13:57:35.918Z,44.90
2022-10-31T14:00:26.893Z,44.60
2022-10-31T14:02:58.885Z,46.22
2022-10-31T14:05:36.567Z,44.40
2022-10-31T14:08:21.769Z,41.22
2022-10-31T14:10:56.641Z,42.80
2022-10-31T14:13:35.305Z,41.60
2022-10-31T14:16:26.094Z,37.30
2022-10-31T14:19:24.150Z,38.78
2022-10-31T14:25:44.897Z,41.67
2022-10-31T14:30:53.680Z,42.67
2022-10-31T14:32:28.256Z,45.20
2022-10-31T14:36:02.643Z,43.35
2022-10-31T14:39:43.527Z,41.92
2022-10-31T14:45:26.247Z,42.60
2022-10-31T14:49:02.243Z,49.50
2022-10-31T14:51:39.608Z,46.28
2022-10-31T14:54:18.327Z,49.22
2022-10-31T14:56:53.355Z,46.95
2022-10-31T14:59:28.629Z,49.03
2022-10-31T15:02:08.507Z,51.60
2022-10-31T15:04:41.644Z,52.85
2022-10-31T15:07:26.887Z,47.22
2022-10-31T15:10:01.666Z,52.50
2022-10-31T15:12:32.690Z,55.85
2022-10-31T15:15:35.155Z,57.15
2022-10-31T15:18:06.570Z,53.47
2022-10-31T15:20:44.086Z,57.35
2022-10-31T15:23:24.957Z,51.42
2022-10-31T15:26:02.757Z,56.15
2022-10-31T15:28:32.513Z,55.70
2022-10-31T15:31:03.615Z,63.72
2022-10-31T15:33:46.936Z,64.40
2022-10-31T15:36:24.088Z,51.80
2022-10-31T15:38:59.676Z,53.10
2022-10-31T15:41:45.019Z,66.43
2022-10-31T15:44:27.332Z,54.83
2022-10-31T15:47:02.487Z,56.40
2022-10-31T15:49:36.354Z,52.42
2022-10-31T15:52:16.916Z,55.63
2022-10-31T15:54:52.007Z,55.35
2022-10-31T15:57:20.766Z,60.35
2022-10-31T15:59:51.326Z,57.58
2022-10-31T16:02:23.478Z,48.35
2022-10-31T16:07:23.986Z,39.92
2022-10-31T16:10:03.054Z,39.13
2022-10-31T16:12:53.140Z,37.72
2022-10-31T16:15:22.549Z,38.67
2022-10-31T16:17:54.871Z,36.22
2022-10-31T16:20:29.029Z,39.40
2022-10-31T16:23:02.428Z,38.13
2022-10-31T16:25:37.871Z,36.25
2022-10-31T16:28:17.578Z,35.75
2022-10-31T16:30:53.645Z,34.50
2022-10-31T16:33:32.178Z,36.20
2022-10-31T16:36:35.854Z,31.33
2022-10-31T16:39:11.495Z,31.63
2022-10-31T16:41:44.204Z,30.38
2022-10-31T16:44:27.910Z,30.83
2022-10-31T16:47:10.258Z,31.40
2022-10-31T16:49:39.872Z,30.58
2022-10-31T16:52:08.352Z,29.80
2022-10-31T16:54:37.235Z,37.13
2022-10-31T16:57:16.836Z,40.25
2022-10-31T16:59:52.734Z,36.58
2022-10-31T17:02:22.041Z,31.85
2022-10-31T17:04:53.933Z,30.98
2022-10-31T17:07:25.280Z,34.65
2022-10-31T17:09:53.981Z,31.90
2022-10-31T17:12:27.234Z,32.33
2022-10-31T17:14:57.013Z,30.98
2022-10-31T17:17:25.467Z,29.15
2022-10-31T17:19:54.251Z,28.95
2022-10-31T17:22:22.701Z,29.77
2022-10-31T17:24:51.401Z,32.40
2022-10-31T17:27:21.175Z,38.28
2022-10-31T17:29:51.389Z,38.45
2022-10-31T17:32:19.774Z,31.48
2022-10-31T17:34:48.572Z,35.40
2022-10-31T17:37:17.043Z,40.38
2022-10-31T17:39:45.972Z,40.55
2022-10-31T17:42:14.241Z,39.40
2022-10-31T17:44:43.085Z,32.60
2022-10-31T17:47:11.497Z,33.45
2022-10-31T17:49:40.571Z,35.55
2022-10-31T17:52:11.918Z,35.55
2022-10-31T17:54:41.045Z,31.90
2022-10-31T17:57:09.568Z,30.35
2022-10-31T17:59:40.755Z,29.98
2022-10-31T18:02:12.457Z,47.13
2022-10-31T18:07:11.174Z,45.85
2022-10-31T18:09:39.870Z,40.40
2022-10-31T18:12:08.510Z,29.40
2022-10-31T18:14:38.611Z,29.90
2022-10-31T18:17:07.442Z,29.67
2022-10-31T18:19:36.093Z,28.30
2022-10-31T18:22:04.534Z,29.58
2022-10-31T18:24:35.039Z,29.73
2022-10-31T18:27:31.861Z,30.48
2022-10-31T18:30:00.577Z,33.85
2022-10-31T18:32:32.426Z,52.95
2022-10-31T18:37:29.905Z,42.38
2022-10-31T18:39:58.806Z,47.15
2022-10-31T18:42:27.499Z,36.00
2022-10-31T18:44:56.508Z,32.58
2022-10-31T18:47:26.135Z,30.65
2022-10-31T18:49:55.303Z,30.02
2022-10-31T18:52:26.035Z,31.40
2022-10-31T18:54:55.096Z,32.50
2022-10-31T18:57:23.750Z,36.78
2022-10-31T18:59:52.405Z,45.42
2022-10-31T19:02:21.118Z,43.63
2022-10-31T19:04:50.595Z,45.63
2022-10-31T19:07:19.133Z,43.55
2022-10-31T19:09:48.209Z,51.35
2022-10-31T19:12:16.727Z,55.40
2022-10-31T19:14:45.569Z,68.13
2022-10-31T19:17:15.545Z,61.08
2022-10-31T19:19:44.525Z,49.55
2022-10-31T19:22:12.827Z,156.05
2022-10-31T19:24:41.465Z,59.47
2022-10-31T19:27:10.402Z,48.65
2022-10-31T19:29:44.395Z,42.13
2022-10-31T19:32:13.221Z,46.30
2022-10-31T19:34:41.806Z,41.10
2022-10-31T19:37:10.123Z,42.72
2022-10-31T19:39:43.938Z,46.05
2022-10-31T19:42:12.748Z,46.20
2022-10-31T19:44:41.551Z,42.85
2022-10-31T19:47:10.976Z,42.35
2022-10-31T19:49:40.285Z,44.97
2022-10-31T19:52:08.648Z,50.95
2022-10-31T19:54:37.282Z,51.53
2022-10-31T19:57:05.958Z,51.72
2022-10-31T19:59:39.104Z,49.92
2022-10-31T20:02:10.280Z,50.92
2022-10-31T20:04:39.487Z,60.20
2022-10-31T20:07:08.991Z,62.35
2022-10-31T20:09:38.207Z,74.72
2022-10-31T20:12:07.558Z,81.72
2022-10-31T20:14:36.558Z,70.10
2022-10-31T20:17:05.628Z,55.30
2022-10-31T20:19:35.005Z,67.07
2022-10-31T20:22:03.680Z,56.25
2022-10-31T20:24:33.309Z,46.92
2022-10-31T20:27:04.631Z,47.90
2022-10-31T20:29:33.457Z,43.95
2022-10-31T20:32:02.273Z,49.50
2022-10-31T20:34:30.891Z,50.90
2022-10-31T20:36:59.266Z,63.03
2022-10-31T20:39:27.846Z,64.07
2022-10-31T20:41:56.279Z,66.57
2022-10-31T20:44:25.027Z,61.45
2022-10-31T20:46:53.321Z,63.22
2022-10-31T20:49:23.320Z,61.78
2022-10-31T20:51:52.531Z,73.45
2022-10-31T20:54:21.151Z,71.28
2022-10-31T20:56:50.113Z,57.97
2022-10-31T20:59:20.074Z,60.67
2022-10-31T21:01:48.917Z,57.45
2022-10-31T21:04:18.322Z,50.58
2022-10-31T21:06:49.404Z,52.70
2022-10-31T21:09:18.546Z,48.47
2022-10-31T21:11:46.954Z,47.80
2022-10-31T21:14:16.112Z,45.97
2022-10-31T21:16:44.406Z,48.40
2022-10-31T21:19:13.492Z,53.25
2022-10-31T21:21:42.183Z,58.97
2022-10-31T21:24:16.471Z,55.45
2022-10-31T21:26:47.827Z,53.00
2022-10-31T21:29:18.806Z,48.30
2022-10-31T21:31:47.911Z,57.10
2022-10-31T21:34:17.012Z,47.78
2022-10-31T21:36:45.711Z,48.58
2022-10-31T21:39:14.705Z,47.38
2022-10-31T21:41:43.323Z,52.58
2022-10-31T21:44:12.391Z,51.25
2022-10-31T21:46:40.869Z,50.95
2022-10-31T21:49:10.882Z,61.45
2022-10-31T21:51:39.330Z,68.05
2022-10-31T21:54:31.665Z,74.72
2022-10-31T21:57:01.883Z,64.50
2022-10-31T21:59:31.626Z,58.67
2022-10-31T22:02:00.911Z,56.78
2022-10-31T22:04:30.189Z,61.05
2022-10-31T22:06:58.791Z,46.17
2022-10-31T22:09:29.213Z,36.28
2022-10-31T22:11:57.811Z,35.70
2022-10-31T22:14:26.512Z,37.88
2022-10-31T22:16:55.133Z,37.97
2022-10-31T22:19:31.593Z,38.42
2022-10-31T22:22:00.280Z,36.55
2022-10-31T22:24:31.735Z,39.40
2022-10-31T22:27:00.428Z,43.03
2022-10-31T22:29:29.180Z,46.30
2022-10-31T22:31:59.740Z,46.33
2022-10-31T22:34:31.936Z,48.17
2022-10-31T22:37:02.617Z,44.72
2022-10-31T22:39:31.950Z,49.20
2022-10-31T22:42:00.481Z,49.78
2022-10-31T22:44:29.326Z,53.80
2022-10-31T22:47:02.562Z,51.28
2022-10-31T22:49:31.810Z,56.60
2022-10-31T22:52:03.646Z,58.40
2022-10-31T22:57:01.231Z,76.15
2022-10-31T22:59:35.132Z,71.95
2022-10-31T23:02:06.017Z,57.97
2022-10-31T23:04:37.954Z,56.13
2022-10-31T23:07:06.857Z,58.42
2022-10-31T23:09:39.522Z,57.75
2022-10-31T23:12:27.257Z,54.65
2022-10-31T23:15:00.205Z,63.28
2022-10-31T23:17:30.337Z,63.03
2022-10-31T23:19:59.777Z,58.47
2022-10-31T23:22:28.288Z,57.92
2022-10-31T23:24:57.207Z,56.70
2022-10-31T23:27:25.744Z,57.22
2022-10-31T23:29:56.636Z,66.63
2022-10-31T23:32:31.403Z,66.47
2022-10-31T23:35:03.683Z,76.20
2022-10-31T23:40:02.549Z,78.35
2022-10-31T23:42:31.163Z,83.88
2022-10-31T23:44:59.926Z,80.68
2022-10-31T23:47:28.304Z,68.05
2022-10-31T23:50:24.495Z,73.93
2022-10-31T23:53:01.932Z,69.78
2022-10-31T23:55:31.248Z,52.85
2022-10-31T23:58:00.201Z,48.03
